NORTHEAST SUFFOLK  -  Winter Weather Advisory Winter Weather Advisory     Winter Weather Advisory Winter Weather Advisory        NORTHERN NASSAU  -  Winter Weather Advisory Winter Weather Advisory        NORTHWEST SUFFOLK  -  Winter Weather Advisory Winter Weather Advisory     Winter Weather Advisory Winter Weather Advisory        SOUTHEAST SUFFOLK  -  Winter Weather Advisory Winter Weather Advisory     Winter Weather Advisory Winter Weather Advisory        SOUTHERN NASSAU  -  Winter Weather Advisory Winter Weather Advisory        SOUTHWEST SUFFOLK  -  Winter Weather Advisory Winter Weather Advisory     Winter Weather Advisory Winter Weather Advisory      

Active alerts

Northern Nassau
  Details for Northern Nassau Winter Weather Advisory
Southern Nassau
  Details for Southern Nassau Winter Weather Advisory
Northwest Suffolk
  Details for Northwest Suffolk Winter Weather Advisory  +1 additional alert
Southwest Suffolk
  Details for Southwest Suffolk Winter Weather Advisory  +1 additional alert
Northeast Suffolk
  Details for Northeast Suffolk Winter Weather Advisory  +1 additional alert
Southeast Suffolk
  Details for Southeast Suffolk Winter Weather Advisory  +1 additional alert


WXM80 ListenWXM80 Stop

You find our weather info also at:

UK Metoffice

WeatherCloud

Weather Underground

Northeastern Weather Network

AWEKAS

Citizen Weather Observer Program (CWOP)

HAMweather, WeatherForYou, PWS Weather


Weather Underground History page Text

Daily Summary for March 3, 2017 Units:  English    Metric   Both
« Previous Day
Next Day »
Daily Weekly Monthly Yearly Custom
  High: Low: Average:
Temperature: 39.6 °F 25.2 °F 33.4 °F
Dew Point: 20.2 °F 6.1 °F 15.4 °F
Humidity: 60 % 32 % 48 %
Wind Speed: 16.4 mph 1.3 mph 6.6 mph
Wind Gust: 32.2 mph - -
Wind:- - WNW
Pressure: 30.39 in 30.05 in -
Precipitation: 0.00 in    
Historical Graphs
 
 
Tabular Data for March 3, 2017
Time Temperature Dew Point Pressure Wind Wind Speed Wind Gust Humidity Rainfall Rate (Hourly)
00:03 35.5 °F 17.2 °F 30.05 in WNW 6.4 mph 16.1 mph 47 % 0.00 in
00:08 35.4 °F 17.2 °F 30.06 in WNW 6.0 mph 13.0 mph 47 % 0.00 in
00:13 35.3 °F 16.6 °F 30.05 in WNW 6.9 mph 13.8 mph 46 % 0.00 in
00:18 35.2 °F 16.5 °F 30.05 in NW 8.3 mph 11.5 mph 46 % 0.00 in
00:23 35.2 °F 16.9 °F 30.05 in WNW 7.0 mph 18.0 mph 47 % 0.00 in
00:28 35.1 °F 16.4 °F 30.06 in WNW 8.0 mph 18.0 mph 46 % 0.00 in
00:33 35.0 °F 17.3 °F 30.06 in WNW 5.0 mph 12.0 mph 48 % 0.00 in
00:38 34.9 °F 16.2 °F 30.06 in WNW 8.0 mph 16.0 mph 46 % 0.00 in
00:43 34.8 °F 17.1 °F 30.06 in WNW 8.0 mph 15.0 mph 48 % 0.00 in
00:48 34.7 °F 18.4 °F 30.06 in WNW 7.0 mph 12.0 mph 51 % 0.00 in
00:53 34.6 °F 17.8 °F 30.06 in WSW 5.5 mph 15.0 mph 50 % 0.00 in
00:58 34.5 °F 17.8 °F 30.06 in NNW 5.5 mph 17.3 mph 50 % 0.00 in
01:03 34.4 °F 17.7 °F 30.06 in WNW 5.5 mph 13.8 mph 50 % 0.00 in
01:08 34.3 °F 17.1 °F 30.07 in North 4.8 mph 12.7 mph 49 % 0.00 in
01:13 34.2 °F 17.0 °F 30.07 in WNW 9.9 mph 16.1 mph 49 % 0.00 in
01:18 34.1 °F 16.9 °F 30.07 in NNW 5.2 mph 15.0 mph 49 % 0.00 in
01:23 34.0 °F 16.8 °F 30.07 in North 7.5 mph 13.8 mph 49 % 0.00 in
01:28 33.9 °F 16.7 °F 30.08 in WSW 7.4 mph 15.0 mph 49 % 0.00 in
01:33 33.9 °F 16.3 °F 30.08 in WNW 4.8 mph 9.2 mph 48 % 0.00 in
01:38 33.8 °F 16.6 °F 30.08 in WNW 4.2 mph 11.5 mph 49 % 0.00 in
01:43 33.7 °F 16.1 °F 30.08 in NW 5.8 mph 15.0 mph 48 % 0.00 in
01:48 33.5 °F 16.4 °F 30.08 in WSW 6.4 mph 13.0 mph 49 % 0.00 in
01:53 33.4 °F 15.8 °F 30.08 in WNW 4.4 mph 9.2 mph 48 % 0.00 in
01:58 33.3 °F 15.2 °F 30.08 in West 4.4 mph 11.5 mph 47 % 0.00 in
02:03 33.2 °F 15.6 °F 30.08 in NW 5.5 mph 13.8 mph 48 % 0.00 in
02:08 33.1 °F 15.5 °F 30.08 in West 5.4 mph 15.0 mph 48 % 0.00 in
02:13 33.0 °F 15.4 °F 30.08 in West 6.7 mph 15.0 mph 48 % 0.00 in
02:18 32.9 °F 15.8 °F 30.08 in West 6.7 mph 12.0 mph 49 % 0.00 in
02:24 32.8 °F 15.7 °F 30.08 in WNW 5.0 mph 8.1 mph 49 % 0.00 in
02:29 32.7 °F 16.1 °F 30.08 in West 3.4 mph 10.4 mph 50 % 0.00 in
02:34 32.6 °F 16.4 °F 30.08 in NW 4.0 mph 9.2 mph 51 % 0.00 in
02:39 32.6 °F 16.0 °F 30.08 in West 6.4 mph 11.0 mph 50 % 0.00 in
02:44 32.5 °F 15.9 °F 30.08 in West 5.7 mph 12.7 mph 50 % 0.00 in
02:49 32.5 °F 16.4 °F 30.08 in West 1.3 mph 3.5 mph 51 % 0.00 in
02:54 32.4 °F 16.3 °F 30.08 in NW 6.7 mph 11.5 mph 51 % 0.00 in
02:59 32.3 °F 16.2 °F 30.08 in WSW 6.2 mph 9.2 mph 51 % 0.00 in
03:04 32.3 °F 16.2 °F 30.08 in WNW 2.3 mph 6.9 mph 51 % 0.00 in
03:09 32.2 °F 17.0 °F 30.08 in SW 2.2 mph 6.0 mph 53 % 0.00 in
03:14 32.1 °F 16.4 °F 30.08 in NW 4.8 mph 12.0 mph 52 % 0.00 in
03:19 32.0 °F 16.8 °F 30.08 in NW 6.5 mph 10.0 mph 53 % 0.00 in
03:24 32.0 °F 16.3 °F 30.08 in WNW 5.7 mph 9.2 mph 52 % 0.00 in
03:30 31.9 °F 16.7 °F 30.09 in WNW 6.2 mph 10.4 mph 53 % 0.00 in
03:35 31.9 °F 16.2 °F 30.09 in WSW 8.1 mph 11.5 mph 52 % 0.00 in
03:40 31.8 °F 16.6 °F 30.09 in NW 5.9 mph 11.5 mph 53 % 0.00 in
03:45 31.7 °F 16.1 °F 30.09 in NW 6.1 mph 16.1 mph 52 % 0.00 in
03:50 31.6 °F 16.4 °F 30.09 in NW 9.6 mph 11.5 mph 53 % 0.00 in
03:55 31.6 °F 16.8 °F 30.10 in WSW 7.2 mph 12.7 mph 54 % 0.00 in
04:00 31.6 °F 16.8 °F 30.09 in WSW 3.2 mph 8.1 mph 54 % 0.00 in
04:05 31.5 °F 16.3 °F 30.10 in WNW 7.9 mph 16.1 mph 53 % 0.00 in
04:10 31.3 °F 15.7 °F 30.10 in NW 6.8 mph 11.5 mph 52 % 0.00 in
04:15 31.2 °F 16.0 °F 30.10 in NW 6.1 mph 11.5 mph 53 % 0.00 in
04:20 31.1 °F 16.8 °F 30.10 in NW 2.0 mph 3.5 mph 55 % 0.00 in
04:25 31.1 °F 15.9 °F 30.11 in NW 6.7 mph 11.5 mph 53 % 0.00 in
04:30 31.0 °F 16.3 °F 30.10 in WNW 4.8 mph 9.2 mph 54 % 0.00 in
04:35 31.0 °F 16.3 °F 30.11 in NW 4.8 mph 11.5 mph 54 % 0.00 in
04:41 30.9 °F 16.6 °F 30.11 in WSW 5.9 mph 10.4 mph 55 % 0.00 in
04:46 30.8 °F 16.5 °F 30.11 in NW 5.7 mph 16.1 mph 55 % 0.00 in
04:51 30.7 °F 16.4 °F 30.11 in NW 7.7 mph 17.3 mph 55 % 0.00 in
04:56 30.7 °F 16.4 °F 30.11 in WNW 7.5 mph 11.5 mph 55 % 0.00 in
05:01 30.7 °F 16.8 °F 30.11 in WSW 5.7 mph 12.7 mph 56 % 0.00 in
05:06 30.6 °F 16.3 °F 30.12 in NW 5.5 mph 16.1 mph 55 % 0.00 in
05:11 30.6 °F 16.7 °F 30.11 in West 4.9 mph 9.2 mph 56 % 0.00 in
05:16 30.5 °F 17.1 °F 30.12 in NW 4.3 mph 11.0 mph 57 % 0.00 in
05:21 30.5 °F 16.7 °F 30.12 in WNW 6.1 mph 10.4 mph 56 % 0.00 in
05:26 30.4 °F 16.6 °F 30.12 in NW 8.4 mph 15.0 mph 56 % 0.00 in
05:31 30.3 °F 16.9 °F 30.12 in WNW 3.5 mph 9.2 mph 57 % 0.00 in
05:36 30.3 °F 16.9 °F 30.13 in NW 4.5 mph 11.5 mph 57 % 0.00 in
05:42 30.2 °F 16.8 °F 30.13 in WSW 8.8 mph 12.7 mph 57 % 0.00 in
05:47 30.2 °F 16.4 °F 30.13 in WSW 3.5 mph 8.0 mph 56 % 0.00 in
05:52 30.2 °F 16.4 °F 30.14 in West 2.5 mph 4.6 mph 56 % 0.00 in
05:57 30.2 °F 16.8 °F 30.14 in WNW 5.7 mph 12.7 mph 57 % 0.00 in
06:02 30.1 °F 16.3 °F 30.14 in NW 3.5 mph 11.5 mph 56 % 0.00 in
06:07 30.1 °F 16.7 °F 30.15 in WSW 4.6 mph 16.1 mph 57 % 0.00 in
06:12 30.1 °F 16.7 °F 30.15 in WSW 8.1 mph 11.5 mph 57 % 0.00 in
06:15 30.1 °F 16.7 °F 30.15 in WNW 6.1 mph 10.0 mph 57 % 0.00 in
06:20 30.1 °F 16.7 °F 30.15 in West 3.6 mph 15.0 mph 57 % 0.00 in
06:25 30.1 °F 17.1 °F 30.15 in NW 5.4 mph 10.4 mph 58 % 0.00 in
06:30 30.1 °F 17.1 °F 30.15 in WSW 4.2 mph 11.5 mph 58 % 0.00 in
06:35 30.0 °F 17.0 °F 30.15 in West 7.4 mph 15.0 mph 58 % 0.00 in
06:40 30.1 °F 16.7 °F 30.15 in WSW 6.6 mph 9.2 mph 57 % 0.00 in
06:45 30.1 °F 17.1 °F 30.16 in WNW 2.6 mph 9.2 mph 58 % 0.00 in
06:50 30.2 °F 16.8 °F 30.15 in West 4.7 mph 10.4 mph 57 % 0.00 in
06:55 30.3 °F 16.9 °F 30.16 in WNW 3.9 mph 10.4 mph 57 % 0.00 in
07:01 30.4 °F 17.4 °F 30.16 in West 3.3 mph 6.9 mph 58 % 0.00 in
07:06 30.6 °F 17.6 °F 30.16 in NW 7.9 mph 13.0 mph 58 % 0.00 in
07:11 30.8 °F 16.9 °F 30.16 in West 5.6 mph 11.5 mph 56 % 0.00 in
07:16 31.0 °F 17.5 °F 30.16 in WSW 8.5 mph 12.7 mph 57 % 0.00 in
07:21 31.1 °F 17.2 °F 30.17 in WNW 6.9 mph 12.7 mph 56 % 0.00 in
07:26 31.2 °F 17.3 °F 30.16 in West 5.1 mph 11.5 mph 56 % 0.00 in
07:31 31.2 °F 17.3 °F 30.17 in WNW 3.5 mph 13.0 mph 56 % 0.00 in
07:36 31.4 °F 17.9 °F 30.17 in WNW 5.0 mph 6.0 mph 57 % 0.00 in
07:37 31.4 °F 17.9 °F 30.17 in West 5.1 mph 9.0 mph 57 % 0.00 in
07:42 31.5 °F 18.0 °F 30.17 in NW 1.8 mph 8.1 mph 57 % 0.00 in
07:47 31.7 °F 18.2 °F 30.17 in NW 3.6 mph 7.0 mph 57 % 0.00 in
07:52 31.9 °F 18.4 °F 30.17 in WNW 7.1 mph 8.1 mph 57 % 0.00 in
07:57 32.0 °F 18.1 °F 30.18 in NW 2.8 mph 11.0 mph 56 % 0.00 in
08:02 32.1 °F 18.2 °F 30.18 in WNW 7.6 mph 15.0 mph 56 % 0.00 in
08:07 32.2 °F 18.2 °F 30.18 in NW 4.9 mph 8.1 mph 56 % 0.00 in
08:12 32.4 °F 17.6 °F 30.18 in WNW 6.3 mph 10.4 mph 54 % 0.00 in
08:17 32.6 °F 18.2 °F 30.18 in WNW 7.1 mph 11.5 mph 55 % 0.00 in
08:22 32.7 °F 18.3 °F 30.18 in West 9.2 mph 13.8 mph 55 % 0.00 in
08:27 32.8 °F 18.4 °F 30.19 in WNW 6.2 mph 9.2 mph 55 % 0.00 in
08:32 33.0 °F 19.0 °F 30.19 in West 5.5 mph 9.0 mph 56 % 0.00 in
08:38 33.3 °F 18.4 °F 30.19 in NNW 7.4 mph 11.5 mph 54 % 0.00 in
08:43 33.4 °F 18.5 °F 30.19 in NW 5.4 mph 11.5 mph 54 % 0.00 in
08:48 33.5 °F 19.0 °F 30.19 in NW 4.8 mph 11.5 mph 55 % 0.00 in
08:53 33.5 °F 18.6 °F 30.19 in WNW 4.3 mph 9.2 mph 54 % 0.00 in
08:58 33.6 °F 18.7 °F 30.19 in West 7.5 mph 12.7 mph 54 % 0.00 in
09:03 33.6 °F 18.7 °F 30.19 in NW 4.1 mph 10.0 mph 54 % 0.00 in
09:08 33.7 °F 18.8 °F 30.19 in WNW 6.0 mph 10.0 mph 54 % 0.00 in
09:13 33.9 °F 19.0 °F 30.19 in WNW 6.1 mph 6.1 mph 54 % 0.00 in
09:18 33.9 °F 18.6 °F 30.19 in WNW 3.0 mph 9.0 mph 53 % 0.00 in
09:23 34.1 °F 18.3 °F 30.19 in WNW 7.2 mph 10.4 mph 52 % 0.00 in
09:25 34.1 °F 18.3 °F 30.19 in WNW 4.6 mph 8.1 mph 52 % 0.00 in
09:30 34.4 °F 19.0 °F 30.19 in West 4.7 mph 11.0 mph 53 % 0.00 in
09:35 34.6 °F 19.6 °F 30.20 in WNW 4.3 mph 9.0 mph 54 % 0.00 in
09:40 34.9 °F 19.5 °F 30.19 in WNW 7.8 mph 12.7 mph 53 % 0.00 in
09:45 35.0 °F 19.1 °F 30.19 in NW 7.0 mph 12.0 mph 52 % 0.00 in
09:50 35.2 °F 18.9 °F 30.19 in West 5.7 mph 10.4 mph 51 % 0.00 in
09:55 35.1 °F 17.8 °F 30.19 in WSW 6.0 mph 11.5 mph 49 % 0.00 in
10:00 35.3 °F 19.0 °F 30.19 in WSW 6.7 mph 11.5 mph 51 % 0.00 in
10:05 35.6 °F 18.8 °F 30.19 in West 4.2 mph 12.7 mph 50 % 0.00 in
10:10 36.1 °F 19.2 °F 30.19 in West 4.0 mph 9.2 mph 50 % 0.00 in
10:15 36.2 °F 19.3 °F 30.19 in West 2.7 mph 10.4 mph 50 % 0.00 in
10:20 36.4 °F 18.1 °F 30.19 in WNW 4.7 mph 13.8 mph 47 % 0.00 in
10:25 36.7 °F 18.8 °F 30.19 in West 4.9 mph 11.0 mph 48 % 0.00 in
10:31 36.9 °F 18.0 °F 30.19 in WNW 5.6 mph 12.7 mph 46 % 0.00 in
10:36 36.9 °F 18.5 °F 30.19 in WNW 4.4 mph 9.2 mph 47 % 0.00 in
10:41 37.0 °F 18.6 °F 30.19 in NW 5.4 mph 12.7 mph 47 % 0.00 in
10:46 37.1 °F 17.7 °F 30.20 in West 7.9 mph 12.0 mph 45 % 0.00 in
10:51 37.0 °F 18.1 °F 30.19 in WNW 3.0 mph 10.4 mph 46 % 0.00 in
10:56 37.3 °F 17.4 °F 30.19 in WSW 3.7 mph 11.5 mph 44 % 0.00 in
11:01 37.5 °F 18.1 °F 30.20 in WNW 6.0 mph 11.5 mph 45 % 0.00 in
11:02 37.5 °F 17.0 °F 30.20 in WNW 7.3 mph 9.2 mph 43 % 0.00 in
11:08 37.3 °F 17.4 °F 30.20 in NW 6.2 mph 15.0 mph 44 % 0.00 in
11:13 37.2 °F 16.7 °F 30.20 in NW 7.3 mph 15.0 mph 43 % 0.00 in
11:18 37.3 °F 17.9 °F 30.20 in West 6.0 mph 11.5 mph 45 % 0.00 in
11:23 37.3 °F 17.4 °F 30.20 in WSW 5.8 mph 11.5 mph 44 % 0.00 in
11:28 36.9 °F 17.5 °F 30.20 in NW 5.8 mph 9.2 mph 45 % 0.00 in
11:33 36.9 °F 18.0 °F 30.20 in West 5.0 mph 9.0 mph 46 % 0.00 in
11:38 36.6 °F 16.7 °F 30.20 in West 1.6 mph 9.2 mph 44 % 0.00 in
11:43 36.6 °F 16.7 °F 30.20 in WNW 6.0 mph 14.0 mph 44 % 0.00 in
11:48 37.1 °F 17.7 °F 30.20 in West 2.9 mph 8.1 mph 45 % 0.00 in
11:53 37.4 °F 18.0 °F 30.20 in WNW 5.0 mph 16.0 mph 45 % 0.00 in
11:58 37.6 °F 17.1 °F 30.20 in WNW 5.4 mph 11.5 mph 43 % 0.00 in
12:03 37.1 °F 16.6 °F 30.20 in WNW 7.7 mph 11.5 mph 43 % 0.00 in
12:08 37.0 °F 17.1 °F 30.20 in NNW 7.8 mph 13.0 mph 44 % 0.00 in
12:13 37.2 °F 17.3 °F 30.19 in NNW 5.8 mph 11.5 mph 44 % 0.00 in
12:18 37.1 °F 17.2 °F 30.19 in WSW 3.6 mph 10.4 mph 44 % 0.00 in
12:23 37.4 °F 18.5 °F 30.20 in WNW 4.6 mph 11.0 mph 46 % 0.00 in
12:28 37.5 °F 18.1 °F 30.20 in NW 3.5 mph 6.9 mph 45 % 0.00 in
12:34 37.4 °F 18.0 °F 30.19 in North 6.5 mph 11.5 mph 45 % 0.00 in
12:39 37.2 °F 17.3 °F 30.19 in NW 4.5 mph 6.0 mph 44 % 0.00 in
12:44 37.5 °F 18.6 °F 30.19 in SW 4.2 mph 13.8 mph 46 % 0.00 in
12:49 37.9 °F 17.9 °F 30.18 in West 5.4 mph 9.2 mph 44 % 0.00 in
12:54 37.7 °F 17.2 °F 30.19 in WNW 5.2 mph 9.2 mph 43 % 0.00 in
12:59 37.5 °F 17.0 °F 30.18 in WSW 5.2 mph 10.0 mph 43 % 0.00 in
13:04 37.6 °F 17.1 °F 30.18 in NNW 4.7 mph 13.8 mph 43 % 0.00 in
13:09 37.9 °F 16.8 °F 30.18 in West 5.7 mph 12.7 mph 42 % 0.00 in
13:14 38.3 °F 17.7 °F 30.18 in NNW 6.8 mph 10.4 mph 43 % 0.00 in
13:19 38.6 °F 16.3 °F 30.18 in West 5.9 mph 9.2 mph 40 % 0.00 in
13:24 38.6 °F 17.5 °F 30.18 in WSW 4.8 mph 8.1 mph 42 % 0.00 in
13:29 38.8 °F 17.1 °F 30.18 in West 7.1 mph 11.5 mph 41 % 0.00 in
13:34 38.9 °F 16.6 °F 30.18 in WNW 6.5 mph 10.4 mph 40 % 0.00 in
13:40 38.9 °F 16.6 °F 30.17 in WNW 6.1 mph 10.0 mph 40 % 0.00 in
13:45 38.9 °F 16.0 °F 30.17 in WSW 4.1 mph 10.0 mph 39 % 0.00 in
13:50 39.1 °F 16.2 °F 30.17 in NW 2.0 mph 4.6 mph 39 % 0.00 in
13:55 39.3 °F 17.0 °F 30.17 in WNW 6.3 mph 9.2 mph 40 % 0.00 in
14:00 39.6 °F 16.6 °F 30.17 in WNW 5.7 mph 11.5 mph 39 % 0.00 in
14:05 39.5 °F 16.6 °F 30.17 in NW 6.7 mph 7.0 mph 39 % 0.00 in
14:10 39.4 °F 16.5 °F 30.17 in NW 2.7 mph 9.2 mph 39 % 0.00 in
14:15 39.3 °F 17.5 °F 30.17 in NW 2.0 mph 4.6 mph 41 % 0.00 in
14:20 39.2 °F 16.3 °F 30.17 in WNW 5.3 mph 10.4 mph 39 % 0.00 in
14:25 38.7 °F 15.2 °F 30.17 in NW 4.0 mph 8.1 mph 38 % 0.00 in
14:30 38.3 °F 16.1 °F 30.17 in WNW 4.9 mph 11.0 mph 40 % 0.00 in
14:35 37.8 °F 15.0 °F 30.17 in WNW 5.7 mph 6.9 mph 39 % 0.00 in
14:40 37.6 °F 15.4 °F 30.17 in WSW 5.7 mph 10.4 mph 40 % 0.00 in
14:45 37.6 °F 14.8 °F 30.17 in WSW 3.9 mph 9.0 mph 39 % 0.00 in
14:51 37.5 °F 14.2 °F 30.17 in NW 5.4 mph 8.1 mph 38 % 0.00 in
14:56 37.5 °F 14.2 °F 30.17 in WNW 4.9 mph 9.2 mph 38 % 0.00 in
15:01 37.4 °F 14.1 °F 30.17 in NW 3.1 mph 6.9 mph 38 % 0.00 in
15:06 37.3 °F 14.0 °F 30.17 in West 7.4 mph 11.5 mph 38 % 0.00 in
15:11 37.3 °F 12.7 °F 30.16 in WSW 4.2 mph 9.2 mph 36 % 0.00 in
15:16 37.2 °F 12.0 °F 30.16 in North 4.5 mph 11.0 mph 35 % 0.00 in
15:21 37.2 °F 12.7 °F 30.17 in WNW 4.1 mph 11.5 mph 36 % 0.00 in
15:26 37.1 °F 11.9 °F 30.17 in WNW 5.0 mph 10.4 mph 35 % 0.00 in
15:31 37.0 °F 11.2 °F 30.17 in WNW 5.9 mph 14.0 mph 34 % 0.00 in
15:36 36.9 °F 12.4 °F 30.17 in West 3.8 mph 8.1 mph 36 % 0.00 in
15:41 36.8 °F 11.0 °F 30.17 in WNW 9.0 mph 15.0 mph 34 % 0.00 in
15:46 36.8 °F 11.7 °F 30.17 in WSW 7.2 mph 15.0 mph 35 % 0.00 in
15:51 36.8 °F 11.0 °F 30.17 in WNW 5.0 mph 10.4 mph 34 % 0.00 in
15:54 36.8 °F 11.7 °F 30.17 in WNW 7.1 mph 12.7 mph 35 % 0.00 in
16:00 36.8 °F 11.0 °F 30.17 in West 6.6 mph 13.8 mph 34 % 0.00 in
16:05 36.9 °F 12.4 °F 30.17 in NW 7.9 mph 14.0 mph 36 % 0.00 in
16:10 37.0 °F 11.8 °F 30.17 in WNW 6.2 mph 16.0 mph 35 % 0.00 in
16:15 36.9 °F 9.7 °F 30.17 in WNW 6.0 mph 12.7 mph 32 % 0.00 in
16:20 36.8 °F 11.0 °F 30.18 in WNW 7.5 mph 12.7 mph 34 % 0.00 in
16:25 36.7 °F 10.9 °F 30.18 in WNW 5.0 mph 5.8 mph 34 % 0.00 in
16:30 36.6 °F 10.8 °F 30.18 in West 4.3 mph 12.7 mph 34 % 0.00 in
16:35 36.5 °F 10.7 °F 30.18 in West 7.0 mph 11.5 mph 34 % 0.00 in
16:40 36.5 °F 10.7 °F 30.18 in West 5.8 mph 8.1 mph 34 % 0.00 in
16:45 36.5 °F 12.7 °F 30.18 in WSW 5.5 mph 11.5 mph 37 % 0.00 in
16:50 36.4 °F 11.9 °F 30.18 in WNW 4.6 mph 9.2 mph 36 % 0.00 in
16:55 36.4 °F 11.3 °F 30.18 in West 4.2 mph 8.1 mph 35 % 0.00 in
17:00 36.4 °F 11.3 °F 30.18 in NW 6.7 mph 11.5 mph 35 % 0.00 in
17:06 36.3 °F 11.2 °F 30.19 in West 6.2 mph 11.5 mph 35 % 0.00 in
17:11 36.2 °F 11.1 °F 30.19 in WNW 5.5 mph 11.0 mph 35 % 0.00 in
17:16 36.1 °F 11.7 °F 30.19 in West 5.6 mph 11.5 mph 36 % 0.00 in
17:21 36.1 °F 12.3 °F 30.19 in WSW 4.8 mph 12.0 mph 37 % 0.00 in
17:26 36.0 °F 12.2 °F 30.20 in SW 5.8 mph 12.0 mph 37 % 0.00 in
17:31 35.9 °F 12.7 °F 30.20 in NNW 9.4 mph 17.3 mph 38 % 0.00 in
17:36 35.9 °F 13.3 °F 30.20 in West 4.0 mph 10.4 mph 39 % 0.00 in
17:41 35.8 °F 13.2 °F 30.20 in WNW 4.2 mph 10.4 mph 39 % 0.00 in
17:46 35.7 °F 12.5 °F 30.20 in WSW 6.2 mph 9.2 mph 38 % 0.00 in
17:51 35.6 °F 12.5 °F 30.20 in WNW 5.9 mph 13.8 mph 38 % 0.00 in
17:56 35.7 °F 12.5 °F 30.20 in WNW 6.7 mph 9.2 mph 38 % 0.00 in
18:01 35.8 °F 13.2 °F 30.21 in NW 8.2 mph 15.0 mph 39 % 0.00 in
18:06 36.0 °F 12.8 °F 30.21 in NNW 10.7 mph 18.4 mph 38 % 0.00 in
18:11 36.1 °F 14.6 °F 30.21 in WNW 10.4 mph 20.7 mph 41 % 0.00 in
18:17 35.9 °F 16.6 °F 30.23 in WNW 10.0 mph 20.7 mph 45 % 0.00 in
18:22 35.6 °F 17.3 °F 30.23 in West 8.6 mph 16.0 mph 47 % 0.00 in
18:27 35.2 °F 13.8 °F 30.23 in WNW 8.1 mph 18.0 mph 41 % 0.00 in
18:32 34.9 °F 14.1 °F 30.23 in West 9.3 mph 16.1 mph 42 % 0.00 in
18:37 34.7 °F 15.0 °F 30.23 in WNW 12.1 mph 19.6 mph 44 % 0.00 in
18:42 34.4 °F 15.2 °F 30.24 in West 7.8 mph 15.0 mph 45 % 0.00 in
18:47 34.2 °F 17.0 °F 30.25 in SW 6.8 mph 18.4 mph 49 % 0.00 in
18:52 33.9 °F 18.1 °F 30.25 in West 8.3 mph 18.4 mph 52 % 0.00 in
18:57 33.7 °F 18.8 °F 30.26 in NW 4.6 mph 11.5 mph 54 % 0.00 in
19:02 33.4 °F 18.9 °F 30.26 in WNW 10.9 mph 18.0 mph 55 % 0.00 in
19:07 33.3 °F 18.4 °F 30.26 in NNW 8.9 mph 17.3 mph 54 % 0.00 in
19:12 33.2 °F 17.9 °F 30.27 in NNW 11.8 mph 21.9 mph 53 % 0.00 in
19:17 32.9 °F 18.5 °F 30.27 in West 10.5 mph 17.0 mph 55 % 0.00 in
19:23 32.7 °F 18.3 °F 30.27 in WNW 9.6 mph 17.3 mph 55 % 0.00 in
19:28 32.6 °F 19.8 °F 30.27 in NNW 8.9 mph 13.8 mph 59 % 0.00 in
19:33 32.6 °F 20.2 °F 30.27 in NW 6.4 mph 13.8 mph 60 % 0.00 in
19:38 32.5 °F 19.7 °F 30.27 in West 7.7 mph 11.5 mph 59 % 0.00 in
19:43 32.3 °F 19.2 °F 30.27 in WNW 5.7 mph 16.1 mph 58 % 0.00 in
19:48 32.0 °F 18.9 °F 30.28 in West 4.5 mph 11.5 mph 58 % 0.00 in
19:53 31.8 °F 18.7 °F 30.28 in WNW 5.2 mph 16.1 mph 58 % 0.00 in
19:58 31.7 °F 19.4 °F 30.28 in North 8.0 mph 15.0 mph 60 % 0.00 in
20:03 31.6 °F 19.3 °F 30.28 in NW 6.0 mph 15.0 mph 60 % 0.00 in
20:08 31.5 °F 18.8 °F 30.28 in NW 6.0 mph 21.0 mph 59 % 0.00 in
20:13 31.4 °F 18.3 °F 30.29 in NW 9.0 mph 17.0 mph 58 % 0.00 in
20:18 31.3 °F 18.2 °F 30.29 in NW 9.0 mph 16.0 mph 58 % 0.00 in
20:23 31.2 °F 18.5 °F 30.29 in NW 10.0 mph 18.0 mph 59 % 0.00 in
20:28 31.1 °F 15.9 °F 30.30 in NW 10.0 mph 26.0 mph 53 % 0.00 in
20:33 30.9 °F 14.9 °F 30.30 in WNW 10.0 mph 23.0 mph 51 % 0.00 in
20:38 30.8 °F 15.2 °F 30.31 in WNW 10.0 mph 20.0 mph 52 % 0.00 in
20:43 30.7 °F 16.0 °F 30.31 in WNW 12.0 mph 24.0 mph 54 % 0.00 in
20:48 30.5 °F 15.4 °F 30.31 in NW 10.0 mph 25.0 mph 53 % 0.00 in
20:53 30.4 °F 14.9 °F 30.31 in NW 9.5 mph 19.6 mph 52 % 0.00 in
20:58 30.3 °F 15.2 °F 30.31 in North 8.0 mph 13.8 mph 53 % 0.00 in
21:03 30.2 °F 14.7 °F 30.32 in NW 5.6 mph 18.0 mph 52 % 0.00 in
21:08 30.1 °F 14.6 °F 30.33 in WNW 10.0 mph 21.0 mph 52 % 0.00 in
21:13 30.0 °F 13.6 °F 30.33 in NW 12.3 mph 25.3 mph 50 % 0.00 in
21:18 29.8 °F 13.9 °F 30.33 in NW 8.5 mph 15.0 mph 51 % 0.00 in
21:23 29.7 °F 11.9 °F 30.33 in North 8.8 mph 17.3 mph 47 % 0.00 in
21:28 29.4 °F 10.6 °F 30.33 in NW 9.8 mph 19.6 mph 45 % 0.00 in
21:34 29.1 °F 10.9 °F 30.34 in West 8.9 mph 19.6 mph 46 % 0.00 in
21:36 29.0 °F 10.8 °F 30.34 in NW 10.9 mph 18.4 mph 46 % 0.00 in
21:41 28.8 °F 11.1 °F 30.34 in WNW 10.4 mph 19.6 mph 47 % 0.00 in
21:42 28.8 °F 11.1 °F 30.34 in WNW 10.2 mph 16.1 mph 47 % 0.00 in
21:47 28.6 °F 10.4 °F 30.35 in NNW 15.6 mph 26.5 mph 46 % 0.00 in
21:52 28.4 °F 7.7 °F 30.35 in NW 16.4 mph 32.2 mph 41 % 0.00 in
21:57 28.2 °F 8.0 °F 30.35 in WNW 8.5 mph 19.6 mph 42 % 0.00 in
21:59 28.1 °F 7.4 °F 30.35 in WSW 10.4 mph 23.0 mph 41 % 0.00 in
22:04 27.9 °F 7.2 °F 30.35 in NNW 9.3 mph 26.5 mph 41 % 0.00 in
22:09 27.7 °F 8.6 °F 30.35 in NNW 10.7 mph 13.8 mph 44 % 0.00 in
22:14 27.6 °F 7.5 °F 30.35 in WNW 9.1 mph 21.9 mph 42 % 0.00 in
22:19 27.5 °F 7.9 °F 30.36 in WNW 15.1 mph 23.0 mph 43 % 0.00 in
22:24 27.3 °F 10.2 °F 30.36 in NW 9.9 mph 19.6 mph 48 % 0.00 in
22:29 27.3 °F 9.2 °F 30.36 in West 14.1 mph 23.0 mph 46 % 0.00 in
22:34 27.1 °F 8.0 °F 30.37 in North 12.9 mph 21.9 mph 44 % 0.00 in
22:39 26.8 °F 6.7 °F 30.36 in WNW 10.6 mph 19.6 mph 42 % 0.00 in
22:44 26.5 °F 7.5 °F 30.37 in WNW 8.4 mph 20.0 mph 44 % 0.00 in
22:49 26.3 °F 6.3 °F 30.36 in NNW 10.9 mph 19.6 mph 42 % 0.00 in
22:54 26.1 °F 6.1 °F 30.36 in NW 11.1 mph 18.4 mph 42 % 0.00 in
23:00 25.9 °F 6.4 °F 30.37 in WNW 9.3 mph 23.0 mph 43 % 0.00 in
23:05 25.8 °F 6.3 °F 30.37 in West 11.9 mph 24.2 mph 43 % 0.00 in
23:10 25.7 °F 6.3 °F 30.37 in NNW 5.9 mph 24.2 mph 43 % 0.00 in
23:15 25.7 °F 6.3 °F 30.37 in NNW 14.5 mph 28.0 mph 43 % 0.00 in
23:20 25.6 °F 6.7 °F 30.37 in WSW 9.9 mph 19.6 mph 44 % 0.00 in
23:25 25.6 °F 7.7 °F 30.38 in North 9.9 mph 15.0 mph 46 % 0.00 in
23:30 25.6 °F 7.7 °F 30.38 in NNE 9.4 mph 11.5 mph 46 % 0.00 in
23:35 25.4 °F 7.0 °F 30.39 in North 9.0 mph 17.3 mph 45 % 0.00 in
23:40 25.4 °F 6.5 °F 30.38 in NNW 10.8 mph 18.4 mph 44 % 0.00 in
23:45 25.3 °F 6.4 °F 30.38 in WNW 10.5 mph 18.4 mph 44 % 0.00 in
23:50 25.2 °F 7.3 °F 30.39 in NW 5.7 mph 11.5 mph 46 % 0.00 in
23:55 25.2 °F 7.8 °F 30.39 in NNW 7.9 mph 16.1 mph 47 % 0.00 in
Crab Meadow Weather
Compliments of Weather Underground - 3 mb

Script developed by  Jim McMurry - jmcmurry@mwt.net Adapted for the template by  Wim van der Kuil - Leuven-Template.eu

Astronomy: One year on Mercury is only 88 days.